Time;durP1;ratioP1;P1;durP2;ratioP2;P2;SDS_P1;SDS_P2;PMS_P1;PMS_P2;Temp;Humidity;BMP_temperature;BMP_pressure;BME280_temperature;BME280_humidity;BME280_pressure;Samples;Min_cycle;Max_cycle;Signal;HPM_P1;HPM_P2
2021/12/29 00:00:49;;;;;;;11.02;6.35;;;21.70;62.20;;;;;;7871948;28;20223;-61
2021/12/29 00:04:34;;;;;;;7.18;5.68;;;21.70;62.20;;;;;;7873126;28;20260;-61
2021/12/29 00:08:20;;;;;;;7.50;5.88;;;21.70;62.00;;;;;;7872301;28;20394;-61
2021/12/29 00:12:10;;;;;;;7.75;6.03;;;21.70;62.00;;;;;;7872725;28;20209;-61
2021/12/29 00:15:57;;;;;;;8.70;6.65;;;21.70;62.00;;;;;;7872857;28;20219;-61
2021/12/29 00:19:42;;;;;;;8.88;6.40;;;21.70;62.00;;;;;;7872178;28;20400;-61
2021/12/29 00:23:28;;;;;;;6.47;5.53;;;21.60;61.90;;;;;;7872857;28;20675;-61
2021/12/29 00:27:14;;;;;;;9.10;6.15;;;21.60;61.80;;;;;;7872609;28;20180;-60
2021/12/29 00:30:59;;;;;;;8.20;5.90;;;21.60;61.80;;;;;;7871595;28;20203;-62
2021/12/29 00:34:45;;;;;;;8.30;6.22;;;21.60;61.90;;;;;;7872142;28;20208;-62
2021/12/29 00:38:30;;;;;;;8.27;6.20;;;21.60;61.80;;;;;;7871412;28;20606;-62
2021/12/29 00:42:16;;;;;;;7.88;6.10;;;21.60;61.80;;;;;;7871892;28;20296;-61
2021/12/29 00:46:01;;;;;;;7.07;5.95;;;21.50;61.70;;;;;;7871931;28;20174;-62
2021/12/29 00:49:47;;;;;;;8.30;6.55;;;21.50;61.70;;;;;;7871145;28;20206;-61
2021/12/29 00:53:33;;;;;;;7.60;6.50;;;21.50;61.70;;;;;;7871313;28;20631;-62
2021/12/29 00:57:19;;;;;;;7.20;6.35;;;21.50;61.60;;;;;;7871454;28;20173;-61
2021/12/29 01:01:04;;;;;;;8.23;6.18;;;21.50;61.70;;;;;;7870549;28;20288;-61
2021/12/29 01:04:50;;;;;;;7.07;5.57;;;21.50;61.50;;;;;;7871300;28;20256;-61
2021/12/29 01:08:35;;;;;;;7.50;5.90;;;21.50;61.60;;;;;;7870483;28;20582;-61
2021/12/29 01:12:22;;;;;;;9.10;6.25;;;21.50;61.70;;;;;;7870335;28;20209;-61
2021/12/29 01:19:54;;;;;;;7.68;5.95;;;21.40;61.70;;;;;;7870021;28;20533;-61
2021/12/29 01:23:39;;;;;;;7.03;5.43;;;21.40;61.80;;;;;;7870854;28;20681;-62
2021/12/29 01:27:25;;;;;;;7.30;5.38;;;21.40;61.80;;;;;;7870372;28;20573;-61
2021/12/29 01:31:10;;;;;;;7.35;5.68;;;21.30;61.80;;;;;;7869778;28;20243;-61
2021/12/29 01:34:56;;;;;;;7.85;6.07;;;21.40;61.90;;;;;;7870270;28;20300;-62
2021/12/29 01:38:41;;;;;;;8.45;5.43;;;21.30;62.00;;;;;;7867960;28;20681;-61
2021/12/29 01:42:27;;;;;;;7.72;5.90;;;21.30;61.90;;;;;;7870076;28;20240;-61
2021/12/29 01:46:12;;;;;;;8.82;5.80;;;21.30;61.90;;;;;;7870500;28;20650;-61
2021/12/29 01:50:00;;;;;;;7.60;5.50;;;21.30;62.00;;;;;;7869201;28;20173;-61
2021/12/29 01:54:00;;;;;;;7.82;5.50;;;21.30;62.00;;;;;;7869684;28;20795;-61
2021/12/29 01:57:46;;;;;;;5.97;5.13;;;21.30;62.10;;;;;;7869134;28;20645;-61
2021/12/29 02:01:32;;;;;;;7.38;5.65;;;21.20;62.90;;;;;;7869578;28;20667;-61
2021/12/29 02:05:18;;;;;;;7.25;5.50;;;21.20;62.00;;;;;;7869623;28;20264;-61
2021/12/29 02:09:04;;;;;;;6.68;5.28;;;21.20;62.00;;;;;;7868809;28;20197;-61
2021/12/29 02:12:50;;;;;;;7.03;5.50;;;21.20;62.10;;;;;;7869331;28;20699;-61
2021/12/29 02:16:37;;;;;;;10.93;5.70;;;21.20;62.10;;;;;;7869429;28;20173;-60
2021/12/29 02:20:22;;;;;;;6.97;5.22;;;21.20;62.00;;;;;;7868605;28;20238;-61
2021/12/29 02:27:54;;;;;;;6.97;5.63;;;21.20;62.00;;;;;;7868671;28;20181;-61
2021/12/29 02:31:40;;;;;;;6.85;5.25;;;21.10;62.00;;;;;;7868982;28;20209;-62
2021/12/29 02:35:26;;;;;;;7.38;5.22;;;21.10;62.00;;;;;;7868982;28;20235;-62
2021/12/29 02:39:20;;;;;;;8.07;5.50;;;21.10;62.00;;;;;;7868282;28;20714;-61
2021/12/29 02:43:07;;;;;;;7.82;5.43;;;21.10;62.00;;;;;;7868863;28;20197;-61
2021/12/29 02:46:54;;;;;;;6.20;5.05;;;21.10;62.80;;;;;;7869096;28;20193;-61
2021/12/29 02:50:41;;;;;;;6.50;4.88;;;21.10;62.00;;;;;;7868240;28;20223;-61
2021/12/29 02:54:27;;;;;;;6.85;5.07;;;21.00;61.90;;;;;;7868743;28;20232;-61
2021/12/29 02:58:12;;;;;;;6.22;5.28;;;21.00;61.90;;;;;;7868016;28;20178;-62
2021/12/29 03:01:58;;;;;;;6.05;5.03;;;21.00;61.90;;;;;;7868667;28;20272;-62
2021/12/29 03:05:44;;;;;;;9.25;5.93;;;21.00;61.90;;;;;;7868625;28;20184;-61
2021/12/29 03:09:30;;;;;;;7.15;5.22;;;21.00;62.00;;;;;;7867862;28;20180;-61
2021/12/29 03:13:15;;;;;;;6.68;5.30;;;21.00;62.00;;;;;;7868438;28;20600;-62
2021/12/29 03:17:01;;;;;;;7.30;5.07;;;21.00;62.10;;;;;;7868601;28;20669;-62
2021/12/29 03:20:49;;;;;;;6.40;4.82;;;21.00;62.30;;;;;;7867951;28;20665;-61
2021/12/29 03:24:35;;;;;;;6.53;4.82;;;21.00;62.40;;;;;;7868767;28;20209;-62
2021/12/29 03:28:23;;;;;;;7.50;5.05;;;20.90;62.30;;;;;;7867787;28;20192;-61
2021/12/29 03:32:19;;;;;;;6.10;4.97;;;20.90;62.30;;;;;;7868262;28;20200;-62
2021/12/29 03:36:05;;;;;;;6.88;5.00;;;20.90;62.50;;;;;;7869032;28;20173;-61
2021/12/29 03:39:51;;;;;;;7.25;5.10;;;20.90;62.40;;;;;;7873223;28;20669;-61
2021/12/29 03:43:38;;;;;;;5.45;4.60;;;20.80;62.40;;;;;;7873677;28;20208;-61
2021/12/29 03:47:24;;;;;;;5.43;4.65;;;20.80;62.40;;;;;;7873619;28;20555;-61
2021/12/29 03:51:10;;;;;;;7.15;5.18;;;20.80;62.50;;;;;;7872737;28;20212;-62
2021/12/29 03:54:55;;;;;;;5.72;4.68;;;20.80;62.60;;;;;;7873225;28;20211;-62
2021/12/29 03:58:44;;;;;;;6.50;5.00;;;20.80;62.60;;;;;;7872585;28;20173;-62
2021/12/29 04:02:29;;;;;;;5.85;4.55;;;20.80;62.70;;;;;;7873185;28;20198;-62
2021/12/29 04:06:18;;;;;;;5.93;4.55;;;20.80;62.60;;;;;;7873084;28;20185;-62
2021/12/29 04:10:05;;;;;;;5.13;4.32;;;20.80;62.60;;;;;;7872386;28;20189;-61
2021/12/29 04:13:50;;;;;;;6.43;4.88;;;20.80;62.60;;;;;;7872857;28;20662;-61
2021/12/29 04:17:37;;;;;;;5.68;4.70;;;20.80;62.70;;;;;;7872059;28;20533;-61
2021/12/29 04:21:23;;;;;;;5.32;4.28;;;20.70;62.50;;;;;;7872693;28;20197;-61
2021/12/29 04:25:08;;;;;;;5.68;4.57;;;20.80;62.50;;;;;;7872443;28;20200;-61
2021/12/29 04:28:54;;;;;;;5.93;4.22;;;20.70;62.50;;;;;;7871682;28;20307;-61
2021/12/29 04:32:39;;;;;;;6.05;4.60;;;20.80;62.60;;;;;;7872181;28;20723;-61
2021/12/29 04:36:25;;;;;;;5.70;3.97;;;20.70;62.50;;;;;;7872152;28;20193;-61
2021/12/29 04:40:11;;;;;;;5.85;4.35;;;20.70;62.50;;;;;;7871768;28;20173;-62
2021/12/29 04:43:56;;;;;;;5.72;4.57;;;20.70;62.50;;;;;;7871944;28;20181;-62
2021/12/29 04:47:44;;;;;;;4.80;3.90;;;20.70;62.50;;;;;;7869934;28;20180;-61
2021/12/29 04:51:35;;;;;;;5.57;4.20;;;20.70;62.50;;;;;;7869786;28;20728;-62
2021/12/29 04:55:21;;;;;;;5.38;4.13;;;20.70;62.50;;;;;;7859965;28;20697;-61
2021/12/29 04:59:06;;;;;;;5.30;4.25;;;20.70;62.60;;;;;;7862032;28;20558;-60
2021/12/29 05:02:53;;;;;;;4.78;4.07;;;20.70;62.70;;;;;;7864058;28;20262;-62
2021/12/29 05:10:43;;;;;;;5.03;3.92;;;20.70;62.80;;;;;;7865855;28;20193;-61
2021/12/29 05:14:28;;;;;;;6.03;3.88;;;20.60;62.70;;;;;;7840936;28;20883;-62
2021/12/29 05:18:14;;;;;;;7.95;4.00;;;20.60;62.20;;;;;;7839443;28;20216;-61
2021/12/29 05:21:59;;;;;;;9.68;4.40;;;20.60;62.20;;;;;;7840008;28;20679;-61
2021/12/29 05:25:45;;;;;;;14.23;5.38;;;20.60;62.60;;;;;;7840109;28;20256;-61
2021/12/29 05:29:31;;;;;;;9.23;5.10;;;20.60;62.50;;;;;;7839115;28;20211;-62
2021/12/29 05:33:16;;;;;;;12.68;5.22;;;20.60;62.60;;;;;;7839417;28;20289;-61
2021/12/29 05:37:02;;;;;;;14.50;5.40;;;20.60;62.70;;;;;;7839297;28;20224;-62
2021/12/29 05:40:52;;;;;;;10.70;4.85;;;20.60;62.70;;;;;;7838494;28;20220;-62
2021/12/29 05:44:37;;;;;;;14.05;4.85;;;20.60;62.70;;;;;;7839341;28;20192;-62
2021/12/29 05:48:23;;;;;;;13.18;5.00;;;20.60;62.70;;;;;;7838377;28;20174;-62
2021/12/29 05:52:10;;;;;;;11.48;5.10;;;20.50;62.60;;;;;;7838649;28;20221;-61
2021/12/29 05:55:55;;;;;;;9.77;5.25;;;20.50;62.60;;;;;;7838837;28;20189;-62
2021/12/29 05:59:41;;;;;;;11.45;5.28;;;20.50;62.70;;;;;;7837685;28;20179;-61
2021/12/29 06:03:26;;;;;;;12.32;4.80;;;20.50;62.70;;;;;;7838585;28;20201;-62
2021/12/29 06:07:13;;;;;;;13.13;5.50;;;20.50;62.80;;;;;;7838605;28;20174;-62
2021/12/29 06:10:59;;;;;;;10.43;5.20;;;20.50;62.80;;;;;;7837644;28;20575;-62
2021/12/29 06:14:44;;;;;;;9.57;5.60;;;20.50;62.90;;;;;;7838284;28;20202;-60
2021/12/29 06:18:30;;;;;;;11.10;4.55;;;20.50;63.00;;;;;;7837733;28;20174;-62
2021/12/29 06:22:16;;;;;;;12.20;5.22;;;20.50;63.00;;;;;;7857105;28;20258;-61
2021/12/29 06:26:01;;;;;;;9.80;5.03;;;20.50;63.10;;;;;;7874428;28;20185;-62
2021/12/29 06:29:47;;;;;;;10.35;4.80;;;20.40;63.10;;;;;;7873936;28;20649;-61
2021/12/29 06:33:33;;;;;;;11.05;4.38;;;20.40;63.10;;;;;;7892846;28;20189;-62
2021/12/29 06:37:18;;;;;;;8.05;4.47;;;20.40;64.10;;;;;;7888743;28;20252;-62
2021/12/29 06:41:04;;;;;;;8.65;4.15;;;20.40;63.20;;;;;;7895678;28;20232;-62
2021/12/29 06:44:50;;;;;;;11.32;4.78;;;20.40;63.20;;;;;;7900385;28;20180;-62
2021/12/29 06:48:35;;;;;;;9.63;4.72;;;20.40;63.20;;;;;;7899652;28;20210;-62
2021/12/29 06:52:21;;;;;;;13.30;4.80;;;20.40;63.20;;;;;;7898544;28;20257;-62
2021/12/29 06:56:06;;;;;;;9.93;4.78;;;20.40;63.20;;;;;;7899737;28;20169;-62
2021/12/29 06:59:52;;;;;;;19.52;4.80;;;20.40;63.30;;;;;;7899568;28;20226;-61
2021/12/29 07:03:37;;;;;;;20.13;4.95;;;20.40;63.50;;;;;;7900115;28;20202;-62
2021/12/29 07:07:23;;;;;;;14.40;4.60;;;20.40;63.00;;;;;;7900138;28;20215;-63
2021/12/29 07:11:08;;;;;;;9.75;5.63;;;20.40;63.30;;;;;;7899241;28;20193;-58
2021/12/29 07:14:54;;;;;;;13.65;5.20;;;20.30;59.20;;;;;;7905998;28;20204;-62
2021/12/29 07:18:39;;;;;;;18.00;4.65;;;20.00;58.80;;;;;;7905417;28;20547;-63
2021/12/29 07:22:25;;;;;;;14.98;4.88;;;20.00;61.70;;;;;;7905913;28;20209;-61
2021/12/29 07:26:10;;;;;;;12.05;3.88;;;20.10;63.00;;;;;;7905664;28;20241;-62
2021/12/29 07:29:56;;;;;;;24.20;4.75;;;20.10;63.10;;;;;;7904978;28;20189;-62
2021/12/29 07:33:42;;;;;;;14.20;4.28;;;20.10;63.20;;;;;;7896186;28;20678;-63
2021/12/29 07:37:27;;;;;;;12.18;4.68;;;20.20;63.30;;;;;;7904945;28;20546;-61
2021/12/29 07:41:13;;;;;;;8.40;4.50;;;20.10;63.30;;;;;;7905032;28;20188;-63
2021/12/29 07:44:59;;;;;;;22.08;4.65;;;20.20;63.40;;;;;;7905161;28;20184;-62
2021/12/29 07:48:44;;;;;;;16.60;4.63;;;20.20;63.40;;;;;;7904373;28;20177;-62
2021/12/29 07:52:30;;;;;;;15.13;4.63;;;20.20;63.40;;;;;;7904664;28;20731;-62
2021/12/29 07:56:16;;;;;;;9.20;4.75;;;20.20;63.40;;;;;;7904850;28;20173;-63
2021/12/29 08:00:03;;;;;;;14.65;4.18;;;20.20;63.40;;;;;;7904089;28;20518;-60
2021/12/29 08:03:49;;;;;;;8.88;4.15;;;20.20;63.50;;;;;;7904845;28;20227;-62
2021/12/29 08:07:35;;;;;;;9.80;4.20;;;20.20;63.60;;;;;;7903872;28;20200;-62
2021/12/29 08:11:20;;;;;;;11.20;4.70;;;20.20;63.70;;;;;;7901219;28;20201;-62
2021/12/29 08:15:07;;;;;;;11.50;4.55;;;20.20;64.50;;;;;;7881772;28;20561;-62
2021/12/29 08:18:52;;;;;;;8.35;4.28;;;20.20;63.60;;;;;;7872107;28;20170;-61
2021/12/29 08:22:38;;;;;;;9.82;4.38;;;20.20;63.70;;;;;;7872215;28;20212;-61
2021/12/29 08:26:24;;;;;;;10.00;4.15;;;20.20;63.70;;;;;;7872599;28;20185;-62
2021/12/29 08:30:10;;;;;;;9.30;4.28;;;20.20;63.70;;;;;;7871662;28;20219;-61
2021/12/29 08:33:57;;;;;;;8.65;4.45;;;20.20;63.70;;;;;;7872357;28;20239;-62
2021/12/29 08:37:44;;;;;;;9.20;4.35;;;20.20;63.70;;;;;;7871971;28;20180;-62
2021/12/29 08:41:29;;;;;;;13.02;4.80;;;20.10;63.70;;;;;;7872588;28;20717;-62
2021/12/29 08:45:16;;;;;;;10.48;4.80;;;20.20;63.80;;;;;;7872388;28;20181;-61
2021/12/29 08:49:03;;;;;;;9.27;4.15;;;20.20;63.70;;;;;;7869717;28;20182;-62
2021/12/29 08:52:49;;;;;;;5.50;4.20;;;20.20;63.70;;;;;;7870501;28;20219;-62
2021/12/29 08:56:35;;;;;;;7.22;4.68;;;20.10;63.70;;;;;;7871692;28;20654;-62
2021/12/29 09:00:21;;;;;;;10.38;4.38;;;20.10;63.80;;;;;;7870847;28;20631;-62
2021/12/29 09:04:07;;;;;;;6.88;4.57;;;20.10;63.80;;;;;;7871448;28;20541;-62
2021/12/29 09:07:52;;;;;;;7.57;4.80;;;20.20;64.00;;;;;;7870729;28;20178;-62
2021/12/29 09:11:39;;;;;;;8.77;4.45;;;20.10;63.90;;;;;;7871078;28;20219;-63
2021/12/29 09:15:25;;;;;;;9.13;4.95;;;20.10;64.00;;;;;;7871091;28;20243;-62
2021/12/29 09:19:13;;;;;;;10.18;5.07;;;20.10;64.00;;;;;;7870154;28;20177;-62
2021/12/29 09:23:02;;;;;;;9.55;4.50;;;20.10;64.00;;;;;;7870760;28;20203;-62
2021/12/29 09:26:48;;;;;;;9.27;5.10;;;20.10;64.00;;;;;;7870635;28;20185;-62
2021/12/29 09:30:36;;;;;;;10.25;4.88;;;20.10;64.00;;;;;;7869990;28;20221;-62
2021/12/29 09:34:21;;;;;;;12.93;4.70;;;20.10;64.00;;;;;;7869735;28;20571;-61
2021/12/29 09:38:08;;;;;;;6.50;4.60;;;20.10;64.00;;;;;;7869886;28;20211;-62
2021/12/29 09:41:54;;;;;;;9.70;4.53;;;20.10;64.00;;;;;;7870080;28;20201;-62
2021/12/29 09:45:41;;;;;;;7.18;4.38;;;20.10;64.00;;;;;;7868849;28;20181;-62
2021/12/29 09:49:26;;;;;;;15.90;4.95;;;20.10;64.00;;;;;;7869359;28;20264;-63
2021/12/29 09:53:14;;;;;;;8.60;4.43;;;20.10;64.00;;;;;;7869507;28;20219;-63
2021/12/29 09:57:00;;;;;;;10.48;5.10;;;20.10;64.00;;;;;;7868067;28;20173;-62
2021/12/29 10:00:48;;;;;;;12.57;5.20;;;20.10;64.00;;;;;;7867389;28;20197;-62
2021/12/29 10:04:36;;;;;;;7.47;4.45;;;20.20;64.20;;;;;;7867442;28;20188;-62
2021/12/29 10:08:34;;;;;;;7.88;4.70;;;20.10;64.10;;;;;;7866954;28;20216;-62
2021/12/29 10:12:22;;;;;;;8.45;4.72;;;20.10;64.10;;;;;;7866838;28;20193;-62
2021/12/29 10:16:12;;;;;;;7.55;4.13;;;20.10;64.20;;;;;;7868000;28;20181;-61
2021/12/29 10:20:08;;;;;;;7.72;4.00;;;20.10;64.10;;;;;;7865799;28;20247;-62
2021/12/29 10:23:58;;;;;;;9.35;4.35;;;20.10;64.20;;;;;;7850621;28;20176;-62
2021/12/29 10:27:44;;;;;;;10.05;4.38;;;20.20;64.30;;;;;;7867048;28;20212;-62
2021/12/29 10:31:33;;;;;;;9.15;4.20;;;20.20;64.20;;;;;;7833622;28;20666;-62
2021/12/29 10:35:21;;;;;;;7.47;3.97;;;20.20;64.10;;;;;;7868987;28;20685;-61
2021/12/29 10:39:14;;;;;;;7.03;4.40;;;20.20;64.00;;;;;;7868706;28;20208;-60
2021/12/29 10:43:01;;;;;;;8.93;4.43;;;20.20;64.10;;;;;;7867864;28;20193;-61
2021/12/29 10:46:56;;;;;;;5.80;3.88;;;20.20;64.10;;;;;;7854124;28;20181;-62
2021/12/29 10:50:58;;;;;;;7.25;4.50;;;20.20;64.10;;;;;;7877381;28;20216;-61
2021/12/29 10:54:51;;;;;;;8.63;4.18;;;20.20;65.10;;;;;;7875243;28;20670;-62
2021/12/29 10:58:36;;;;;;;9.10;4.45;;;20.20;64.30;;;;;;7874438;28;20169;-61
2021/12/29 11:02:27;;;;;;;7.53;4.20;;;20.20;64.30;;;;;;7875084;28;20693;-62
2021/12/29 11:06:17;;;;;;;8.80;5.13;;;20.20;64.30;;;;;;7874883;28;20181;-62
2021/12/29 11:10:17;;;;;;;7.30;4.70;;;20.20;64.30;;;;;;7874032;28;20270;-62
2021/12/29 11:14:08;;;;;;;7.47;4.22;;;20.20;64.30;;;;;;7874353;28;20742;-61
2021/12/29 11:17:56;;;;;;;8.95;5.10;;;20.20;64.30;;;;;;7873903;28;20226;-61
2021/12/29 11:21:42;;;;;;;9.05;4.85;;;20.20;64.30;;;;;;7872766;28;20193;-62
2021/12/29 11:25:30;;;;;;;9.38;4.80;;;20.20;64.40;;;;;;7874143;28;20178;-62
2021/12/29 11:29:18;;;;;;;9.38;4.50;;;20.20;64.40;;;;;;7873331;28;20754;-61
2021/12/29 11:33:07;;;;;;;8.02;4.57;;;20.20;64.40;;;;;;7874002;28;20201;-61
2021/12/29 11:37:07;;;;;;;8.95;4.80;;;20.20;64.40;;;;;;7874037;28;20179;-62
2021/12/29 11:40:56;;;;;;;10.60;5.03;;;20.20;64.40;;;;;;7872734;28;20595;-62
2021/12/29 11:44:42;;;;;;;6.95;4.60;;;20.20;64.40;;;;;;7873676;28;20177;-61
2021/12/29 11:48:27;;;;;;;7.32;4.68;;;20.20;64.40;;;;;;7872741;28;20177;-62
2021/12/29 11:52:28;;;;;;;7.65;4.82;;;20.20;64.40;;;;;;7873724;28;20628;-62
2021/12/29 11:56:19;;;;;;;7.90;4.07;;;20.20;65.30;;;;;;7873535;28;20177;-62
2021/12/29 12:00:12;;;;;;;7.03;4.13;;;20.30;64.10;;;;;;7872901;28;20178;-62
2021/12/29 12:04:00;;;;;;;5.13;4.05;;;20.20;64.20;;;;;;7873350;28;20181;-61
2021/12/29 12:07:46;;;;;;;5.90;4.18;;;20.30;64.40;;;;;;7872505;28;20173;-61
2021/12/29 12:11:32;;;;;;;8.98;4.47;;;20.30;64.50;;;;;;7872841;28;20204;-62
2021/12/29 12:15:32;;;;;;;8.15;4.68;;;20.30;64.40;;;;;;7872771;28;20204;-61
2021/12/29 12:19:20;;;;;;;7.30;4.07;;;20.30;64.60;;;;;;7872349;28;20173;-62
2021/12/29 12:23:06;;;;;;;6.50;4.03;;;20.30;64.50;;;;;;7872446;28;20666;-62
2021/12/29 12:26:56;;;;;;;7.80;4.40;;;20.30;64.40;;;;;;7872514;28;20181;-61
2021/12/29 12:30:47;;;;;;;5.50;4.18;;;20.30;64.50;;;;;;7871840;28;20284;-62
2021/12/29 12:34:35;;;;;;;6.10;3.97;;;20.30;64.50;;;;;;7872213;28;20463;-62
2021/12/29 12:38:28;;;;;;;7.13;4.00;;;20.30;64.40;;;;;;7871495;28;20573;-62
2021/12/29 12:42:17;;;;;;;6.18;3.92;;;20.30;64.40;;;;;;7871983;28;20193;-61
2021/12/29 12:46:03;;;;;;;9.27;3.80;;;20.30;64.40;;;;;;7871983;28;20174;-62
2021/12/29 12:49:52;;;;;;;5.03;4.00;;;20.30;64.40;;;;;;7871131;28;20260;-62
2021/12/29 12:53:37;;;;;;;7.85;3.70;;;20.40;64.50;;;;;;7871487;28;20714;-62
2021/12/29 12:57:39;;;;;;;9.30;4.65;;;20.40;64.50;;;;;;7871403;28;20626;-61
2021/12/29 13:01:26;;;;;;;6.70;4.15;;;20.40;64.60;;;;;;7871678;28;20670;-62
2021/12/29 13:05:22;;;;;;;4.82;3.42;;;20.40;64.50;;;;;;7871615;28;20274;-62
2021/12/29 13:09:08;;;;;;;4.82;3.85;;;20.40;64.60;;;;;;7869539;28;20173;-62
2021/12/29 13:12:58;;;;;;;5.32;4.13;;;20.40;64.50;;;;;;7871248;28;20201;-62
2021/12/29 13:16:44;;;;;;;6.03;3.90;;;20.40;64.60;;;;;;7871525;28;20208;-62
2021/12/29 13:20:29;;;;;;;6.35;3.80;;;20.40;64.60;;;;;;7870133;28;20197;-62
2021/12/29 13:24:15;;;;;;;5.78;4.00;;;20.40;64.60;;;;;;7870905;28;20189;-61
2021/12/29 13:28:12;;;;;;;5.95;3.70;;;20.50;64.50;;;;;;7869904;28;20653;-62
2021/12/29 13:31:57;;;;;;;9.00;3.55;;;20.40;64.50;;;;;;7870575;28;20220;-62
2021/12/29 13:35:46;;;;;;;5.03;3.65;;;20.50;64.50;;;;;;7870384;28;20205;-62
2021/12/29 13:39:31;;;;;;;4.85;3.30;;;20.50;64.50;;;;;;7869590;28;20260;-62
2021/12/29 13:43:21;;;;;;;5.55;3.47;;;20.50;64.50;;;;;;7870037;28;20208;-62
2021/12/29 13:47:07;;;;;;;4.80;3.20;;;20.50;64.50;;;;;;7869918;28;20676;-62
2021/12/29 13:51:05;;;;;;;6.70;4.00;;;20.50;64.50;;;;;;7869081;28;20579;-62
2021/12/29 13:54:52;;;;;;;7.22;3.55;;;20.60;64.50;;;;;;7869675;28;20621;-62
2021/12/29 13:58:39;;;;;;;3.85;3.08;;;20.60;64.50;;;;;;7869024;28;20181;-62
2021/12/29 14:02:25;;;;;;;4.38;3.15;;;20.50;64.40;;;;;;7869634;28;20284;-62
2021/12/29 14:06:11;;;;;;;7.43;3.40;;;20.50;64.40;;;;;;7869583;28;20178;-61
2021/12/29 14:09:58;;;;;;;4.85;3.58;;;20.50;64.40;;;;;;7869094;28;20255;-61
2021/12/29 14:13:45;;;;;;;5.85;3.30;;;20.60;64.50;;;;;;7869274;28;20367;-61
2021/12/29 14:17:38;;;;;;;3.17;2.88;;;20.60;64.40;;;;;;7868704;28;20165;-60
2021/12/29 14:21:32;;;;;;;6.25;3.25;;;20.50;64.40;;;;;;7868881;28;20189;-61
2021/12/29 14:25:17;;;;;;;3.13;2.72;;;20.50;64.40;;;;;;7869209;28;20654;-62
2021/12/29 14:29:04;;;;;;;3.72;3.17;;;20.60;64.40;;;;;;7868475;28;20547;-62
2021/12/29 14:32:55;;;;;;;9.20;3.35;;;20.60;64.40;;;;;;7869047;28;20213;-61
2021/12/29 14:36:47;;;;;;;4.00;3.55;;;20.60;64.40;;;;;;7869327;28;20190;-61
2021/12/29 14:40:32;;;;;;;5.10;3.10;;;20.60;64.50;;;;;;7868520;28;20193;-62
2021/12/29 14:44:18;;;;;;;4.38;3.03;;;20.60;64.50;;;;;;7868983;28;20173;-61
2021/12/29 14:48:07;;;;;;;8.27;3.17;;;20.60;64.50;;;;;;7868359;28;20227;-62
2021/12/29 14:51:56;;;;;;;5.85;2.97;;;20.60;64.50;;;;;;7868749;28;20247;-61
2021/12/29 14:55:44;;;;;;;5.60;2.72;;;20.60;64.50;;;;;;7869010;28;20697;-62
2021/12/29 14:59:36;;;;;;;7.10;2.83;;;20.60;64.50;;;;;;7868234;28;20665;-61
2021/12/29 15:03:21;;;;;;;8.60;2.70;;;20.60;64.50;;;;;;7868619;28;20193;-62
2021/12/29 15:07:34;;;;;;;5.00;3.28;;;20.60;64.50;;;;;;7868456;28;20169;-62
2021/12/29 15:11:22;;;;;;;7.13;3.03;;;20.60;64.50;;;;;;7865010;28;20213;-61
2021/12/29 15:15:29;;;;;;;5.55;3.13;;;20.60;64.40;;;;;;7868643;28;20208;-62
2021/12/29 15:19:15;;;;;;;10.43;3.17;;;20.60;64.40;;;;;;7867708;28;20182;-61
2021/12/29 15:23:02;;;;;;;3.88;3.17;;;20.60;64.50;;;;;;7868145;28;20227;-62
2021/12/29 15:26:47;;;;;;;3.60;2.90;;;20.60;64.40;;;;;;7868210;28;20181;-62
2021/12/29 15:30:35;;;;;;;6.15;3.00;;;20.70;64.50;;;;;;7867280;28;20212;-62
2021/12/29 15:34:23;;;;;;;5.53;2.83;;;20.70;64.50;;;;;;7872175;28;20679;-62
2021/12/29 15:38:09;;;;;;;3.58;3.03;;;20.70;64.40;;;;;;7873608;28;20172;-62
2021/12/29 15:41:55;;;;;;;3.40;2.80;;;20.70;65.20;;;;;;7874130;28;20201;-61
2021/12/29 15:45:41;;;;;;;3.80;3.05;;;20.70;64.40;;;;;;7873719;28;20181;-62
2021/12/29 15:49:26;;;;;;;3.10;2.80;;;20.80;64.40;;;;;;7872711;28;20180;-62
2021/12/29 15:53:13;;;;;;;3.83;3.03;;;20.80;64.30;;;;;;7873116;28;20665;-62
2021/12/29 15:56:58;;;;;;;4.68;2.72;;;20.80;64.20;;;;;;7873408;28;20188;-61
2021/12/29 16:00:47;;;;;;;2.90;2.60;;;20.90;64.30;;;;;;7872471;28;20198;-62
2021/12/29 16:04:33;;;;;;;2.92;2.60;;;20.80;64.10;;;;;;7873453;28;20173;-62
2021/12/29 16:08:19;;;;;;;4.97;3.17;;;20.90;64.20;;;;;;7872346;28;20308;-62
2021/12/29 16:12:05;;;;;;;3.30;2.50;;;20.90;64.20;;;;;;7872798;28;20201;-61
2021/12/29 16:15:51;;;;;;;4.07;2.75;;;20.90;64.10;;;;;;7872924;28;20220;-62
2021/12/29 16:19:36;;;;;;;3.15;2.67;;;21.00;64.10;;;;;;7872054;28;20268;-62
2021/12/29 16:23:22;;;;;;;3.28;2.65;;;21.00;64.10;;;;;;7872665;28;20682;-62
2021/12/29 16:27:08;;;;;;;3.75;2.90;;;21.00;64.00;;;;;;7872794;28;20662;-61
2021/12/29 16:30:53;;;;;;;3.10;2.60;;;21.10;64.00;;;;;;7871882;28;20193;-61
2021/12/29 16:34:39;;;;;;;7.68;2.60;;;21.10;64.00;;;;;;7872204;28;20686;-62
2021/12/29 16:38:24;;;;;;;3.13;2.35;;;21.10;63.90;;;;;;7871479;28;20200;-61
2021/12/29 16:42:10;;;;;;;4.88;2.85;;;21.20;64.00;;;;;;7872400;28;20201;-61
2021/12/29 16:45:57;;;;;;;2.60;2.40;;;21.20;64.00;;;;;;7871653;28;20190;-60
2021/12/29 16:49:43;;;;;;;4.88;2.65;;;21.20;63.90;;;;;;7871166;28;20174;-61
2021/12/29 16:53:29;;;;;;;3.67;2.40;;;21.20;63.80;;;;;;7871546;28;20216;-59
2021/12/29 16:57:15;;;;;;;2.58;2.17;;;21.20;63.80;;;;;;7871619;28;20182;-61
2021/12/29 17:01:01;;;;;;;3.83;2.60;;;21.20;63.80;;;;;;7870690;28;20682;-60
2021/12/29 17:04:46;;;;;;;3.97;2.42;;;21.30;63.80;;;;;;7871584;28;20170;-59
2021/12/29 17:08:32;;;;;;;2.55;2.10;;;21.30;63.70;;;;;;7870508;28;20700;-61
2021/12/29 17:12:17;;;;;;;2.95;2.28;;;21.30;63.80;;;;;;7871449;28;20699;-61
2021/12/29 17:16:03;;;;;;;2.70;2.17;;;21.30;63.70;;;;;;7871021;28;20246;-61
2021/12/29 17:19:49;;;;;;;2.38;2.15;;;21.40;63.70;;;;;;7870303;28;20696;-61
2021/12/29 17:23:34;;;;;;;2.28;2.08;;;21.40;63.70;;;;;;7870989;28;20274;-61
2021/12/29 17:27:21;;;;;;;2.67;2.47;;;21.40;63.60;;;;;;7870669;28;20181;-61
2021/12/29 17:31:06;;;;;;;2.47;2.20;;;21.40;63.60;;;;;;7869793;28;20193;-60
2021/12/29 17:34:52;;;;;;;2.80;2.50;;;21.40;63.70;;;;;;7870286;28;20216;-61
2021/12/29 17:38:37;;;;;;;2.70;2.30;;;21.40;63.60;;;;;;7869739;28;20205;-61
2021/12/29 17:42:23;;;;;;;2.97;2.58;;;21.50;63.70;;;;;;7870428;28;20204;-61
2021/12/29 17:46:08;;;;;;;3.63;2.35;;;21.50;63.60;;;;;;7870249;28;20443;-61
2021/12/29 17:49:54;;;;;;;3.35;2.42;;;21.50;63.60;;;;;;7869495;28;20542;-61
2021/12/29 17:53:41;;;;;;;4.18;2.40;;;21.50;63.50;;;;;;7869718;28;20631;-61
2021/12/29 17:57:26;;;;;;;7.57;2.40;;;21.50;63.50;;;;;;7869113;28;20173;-61
2021/12/29 18:01:16;;;;;;;3.03;2.30;;;21.50;63.50;;;;;;7869217;28;20204;-61
2021/12/29 18:05:02;;;;;;;3.65;2.50;;;21.60;63.50;;;;;;7869489;28;20212;-61
2021/12/29 18:08:47;;;;;;;5.43;2.75;;;21.60;63.50;;;;;;7868902;28;20635;-61
2021/12/29 18:12:33;;;;;;;5.43;2.60;;;21.60;63.50;;;;;;7869470;28;20247;-61
2021/12/29 18:16:20;;;;;;;4.72;2.80;;;21.60;63.50;;;;;;7869459;28;20178;-61
2021/12/29 18:20:07;;;;;;;5.57;2.75;;;21.60;63.50;;;;;;7868690;28;20176;-61
2021/12/29 18:23:52;;;;;;;4.60;2.50;;;21.70;63.50;;;;;;7869231;28;20254;-61
2021/12/29 18:27:38;;;;;;;3.30;2.47;;;21.70;63.40;;;;;;7868440;28;20173;-61
2021/12/29 18:31:24;;;;;;;3.40;2.53;;;21.70;63.40;;;;;;7869327;28;20555;-61
2021/12/29 18:35:10;;;;;;;3.15;2.75;;;21.70;63.40;;;;;;7868990;28;20237;-61
2021/12/29 18:38:56;;;;;;;6.10;2.78;;;21.70;63.40;;;;;;7868429;28;20245;-59
2021/12/29 18:42:42;;;;;;;8.35;2.92;;;21.70;63.40;;;;;;7868874;28;20230;-61
2021/12/29 18:46:27;;;;;;;3.15;2.80;;;21.70;63.40;;;;;;7868874;28;20181;-61
2021/12/29 18:50:16;;;;;;;4.10;3.08;;;21.80;63.50;;;;;;7867884;28;20173;-61
2021/12/29 18:54:03;;;;;;;5.38;2.28;;;21.70;63.40;;;;;;7868839;28;20315;-62
2021/12/29 18:57:48;;;;;;;4.80;2.28;;;21.70;63.40;;;;;;7868080;28;20184;-60
2021/12/29 19:01:35;;;;;;;3.42;2.47;;;21.70;63.40;;;;;;7868559;28;20197;-61
2021/12/29 19:05:20;;;;;;;5.30;2.55;;;21.70;63.40;;;;;;7868514;28;20643;-60
2021/12/29 19:09:06;;;;;;;4.68;2.72;;;21.70;63.40;;;;;;7872375;28;20631;-61
2021/12/29 19:12:52;;;;;;;3.38;2.30;;;21.70;63.40;;;;;;7874685;28;20675;-61
2021/12/29 19:16:38;;;;;;;2.95;2.15;;;21.70;63.50;;;;;;7874790;28;20182;-61
2021/12/29 19:20:28;;;;;;;4.40;2.60;;;21.70;63.50;;;;;;7874025;28;20177;-61
2021/12/29 19:24:13;;;;;;;4.50;2.50;;;21.70;63.70;;;;;;7874255;28;20189;-61
2021/12/29 19:28:04;;;;;;;4.22;2.30;;;21.70;63.70;;;;;;7873582;28;20174;-60
2021/12/29 19:31:55;;;;;;;3.53;2.17;;;21.70;63.70;;;;;;7874157;28;20189;-61
2021/12/29 19:35:43;;;;;;;3.67;2.38;;;21.70;63.70;;;;;;7874160;28;20213;-61
2021/12/29 19:39:30;;;;;;;2.85;2.40;;;21.60;63.80;;;;;;7873114;28;20173;-60
2021/12/29 19:43:17;;;;;;;4.13;1.90;;;21.60;63.80;;;;;;7873689;28;20201;-61
2021/12/29 19:47:03;;;;;;;2.85;2.35;;;21.50;63.80;;;;;;7873698;28;20275;-61
2021/12/29 19:50:49;;;;;;;3.13;2.10;;;21.50;63.90;;;;;;7872711;28;20213;-61